Lookout Store, Arkansas
Current Conditions -  °F | °C
As of 8:35 AM on Monday 26 Jan 2015 (Local Time) from KSGT Reporting Station
Broken Clouds Broken Clouds  
Wind Chill: 37°   Ceiling: 2900
Heat Index: 41°   Visibility: 10mi
Dew Point: 32°   Wind: 6mph
Humidity: 70%   Direction: 320°NW
Pressure: 30.15"   Gusts: NA
Location:  34.6163°N, 91.3754°W
Report Text: KSGT 261435Z AUTO 32005KT 10SM BKN029 05/00 A3015 RMK AO1
Loading
Personal Weather Stations






























Interactive Weather Map New forecast layout! Learn more

10-Day Weather Forecast

Advertisements
Track Severe Weather on mobile